Time;durP1;ratioP1;P1;durP2;ratioP2;P2;SDS_P1;SDS_P2;PMS_P1;PMS_P2;Temp;Humidity;BMP_temperature;BMP_pressure;BME280_temperature;BME280_humidity;BME280_pressure;Samples;Min_cycle;Max_cycle;Signal;HPM_P1;HPM_P2
2021/04/26 00:00:28;;;;;;;4.93;4.43;;;6.60;91.80;;;7.37;53.28;98182.81;5205315;28;20296;-64
2021/04/26 00:03:01;;;;;;;5.13;4.50;;;6.50;91.60;;;7.18;53.84;98180.53;5204665;28;20210;-64
2021/04/26 00:05:33;;;;;;;5.13;4.67;;;6.50;91.80;;;7.20;53.61;98176.47;5203637;28;20216;-64
2021/04/26 00:08:05;;;;;;;5.27;4.70;;;6.40;91.80;;;7.19;54.37;98170.50;5203069;28;20566;-64
2021/04/26 00:10:37;;;;;;;7.87;5.27;;;6.40;92.10;;;7.41;53.90;98161.91;5204196;28;20221;-63
2021/04/26 00:13:11;;;;;;;5.10;4.60;;;6.50;91.80;;;7.32;54.09;98168.88;5204834;28;20300;-64
2021/04/26 00:15:47;;;;;;;5.70;4.70;;;6.40;91.90;;;7.23;53.76;98162.31;5204773;28;20694;-64
2021/04/26 00:18:19;;;;;;;5.93;5.43;;;6.30;92.10;;;7.17;54.69;98164.41;5204084;28;20233;-64
2021/04/26 00:20:51;;;;;;;6.10;5.17;;;6.30;92.20;;;7.27;54.50;98160.00;5204306;28;20588;-64
2021/04/26 00:23:24;;;;;;;5.63;5.10;;;6.40;92.30;;;7.12;55.46;98153.00;5203595;28;20215;-65
2021/04/26 00:25:56;;;;;;;5.47;4.97;;;6.40;92.50;;;7.14;55.39;98146.38;5204538;28;20304;-64
2021/04/26 00:28:29;;;;;;;7.30;5.80;;;6.30;92.50;;;7.11;55.28;98155.44;5204670;28;20224;-64
2021/04/26 00:31:02;;;;;;;7.33;5.43;;;6.40;92.70;;;7.16;55.17;98144.84;5205086;28;20602;-63
2021/04/26 00:33:34;;;;;;;5.90;5.27;;;6.40;92.60;;;7.16;55.64;98137.22;5202879;28;20201;-64
2021/04/26 00:36:07;;;;;;;6.43;5.83;;;6.40;92.80;;;7.20;55.63;98134.13;5204552;28;20223;-64
2021/04/26 00:38:39;;;;;;;7.37;5.73;;;6.40;92.80;;;7.37;55.50;98127.75;5203466;28;20286;-64
2021/04/26 00:41:11;;;;;;;7.00;5.93;;;6.50;92.80;;;7.31;54.98;98123.88;5206388;28;20206;-64
2021/04/26 00:43:44;;;;;;;6.43;5.83;;;6.60;92.70;;;7.17;55.82;98121.19;5207781;28;20198;-64
2021/04/26 00:46:16;;;;;;;8.00;6.43;;;6.50;92.70;;;7.36;54.89;98122.56;5208733;28;20209;-63
2021/04/26 00:48:48;;;;;;;7.93;5.87;;;6.60;92.60;;;7.38;54.82;98126.09;5190040;28;20222;-63
2021/04/26 00:51:20;;;;;;;6.83;6.30;;;6.60;92.50;;;7.23;55.28;98119.09;5207851;28;20297;-63
2021/04/26 00:53:53;;;;;;;8.07;6.43;;;6.50;92.70;;;7.14;55.87;98108.25;5206430;28;20208;-63
2021/04/26 00:56:26;;;;;;;8.27;6.50;;;6.50;92.90;;;7.07;56.16;98107.69;5208206;28;20198;-64
2021/04/26 00:58:59;;;;;;;8.13;6.77;;;6.40;93.00;;;7.18;55.90;98106.81;5207619;28;20237;-64
2021/04/26 01:01:31;;;;;;;8.10;7.30;;;6.50;93.00;;;7.16;55.87;98098.22;5207964;28;20209;-64
2021/04/26 01:04:04;;;;;;;8.27;7.30;;;6.50;93.00;;;7.15;56.06;98091.34;5206264;28;20198;-64
2021/04/26 01:06:36;;;;;;;7.90;7.03;;;6.50;93.00;;;7.11;56.14;98089.38;5207397;28;20244;-64
2021/04/26 01:09:08;;;;;;;8.80;8.00;;;6.40;93.00;;;7.13;56.22;98086.16;5206037;28;20231;-64
2021/04/26 01:11:48;;;;;;;7.40;6.60;;;6.40;93.10;;;7.19;55.99;98090.81;5207877;28;20607;-63
2021/04/26 01:14:33;;;;;;;7.27;6.57;;;6.40;93.20;;;7.10;56.37;98088.50;5208264;28;20244;-63
2021/04/26 01:17:10;;;;;;;7.67;6.93;;;6.50;93.00;;;7.14;56.12;98070.13;5207672;28;20658;-63
2021/04/26 01:20:38;;;;;;;9.27;6.60;;;6.50;92.90;;;7.16;55.82;98066.06;5187637;28;20226;-64
2021/04/26 01:24:16;;;;;;;10.10;6.73;;;6.50;93.00;;;7.07;56.05;98067.94;5185201;28;20243;-62
2021/04/26 01:27:07;;;;;;;7.40;6.67;;;6.40;93.20;;;6.99;55.86;98057.19;5192280;28;20231;-62
2021/04/26 01:30:13;;;;;;;8.10;7.23;;;6.30;93.10;;;7.01;55.99;98049.69;5192735;28;20247;-64
2021/04/26 01:32:49;;;;;;;7.43;6.77;;;6.40;92.70;;;6.94;55.36;98053.41;5198717;28;20202;-64
2021/04/26 01:35:24;;;;;;;9.13;7.53;;;6.30;92.70;;;6.76;55.44;98045.31;5207182;28;20204;-62
2021/04/26 01:38:03;;;;;;;7.87;7.17;;;6.20;92.60;;;6.75;55.61;98053.72;5207180;28;20228;-63
2021/04/26 01:40:37;;;;;;;7.90;7.20;;;6.20;92.60;;;6.90;55.44;98042.94;5207139;28;20597;-64
2021/04/26 01:43:10;;;;;;;8.40;7.10;;;6.20;92.50;;;6.80;55.22;98040.47;5207390;28;20198;-64
2021/04/26 01:45:43;;;;;;;8.63;7.60;;;6.20;92.30;;;6.73;55.09;98037.47;5207332;28;20210;-64
2021/04/26 01:48:16;;;;;;;9.83;7.60;;;6.10;92.40;;;6.68;55.14;98031.16;5206007;28;20222;-64
2021/04/26 01:50:49;;;;;;;7.50;6.63;;;6.00;92.50;;;6.71;55.10;98028.84;5205944;28;20205;-65
2021/04/26 01:53:22;;;;;;;8.13;7.43;;;6.00;92.40;;;6.72;55.22;98024.66;5206269;28;20677;-64
2021/04/26 01:55:57;;;;;;;8.00;7.30;;;6.00;92.30;;;6.80;54.78;98023.56;5206720;28;20233;-64
2021/04/26 01:58:30;;;;;;;8.00;7.30;;;6.00;92.40;;;6.79;54.56;98020.94;5206568;28;20229;-65
2021/04/26 02:01:02;;;;;;;7.87;7.17;;;6.00;92.30;;;6.85;54.21;98026.47;5206723;28;20206;-65
2021/04/26 02:03:36;;;;;;;10.70;7.73;;;6.20;91.70;;;6.67;54.96;98033.59;5206692;28;20198;-65
2021/04/26 02:06:09;;;;;;;7.87;7.07;;;6.10;91.80;;;6.65;54.43;98025.84;5206770;28;20289;-65
2021/04/26 02:08:41;;;;;;;8.17;7.47;;;6.00;91.90;;;6.70;54.31;98034.72;5206159;28;20575;-65
2021/04/26 02:11:14;;;;;;;8.27;7.47;;;6.00;91.70;;;6.63;54.55;98037.56;5206167;28;20202;-65
2021/04/26 02:13:48;;;;;;;7.77;7.07;;;6.00;91.60;;;6.67;54.36;98026.88;5204808;28;20209;-65
2021/04/26 02:16:21;;;;;;;7.60;6.90;;;6.00;91.70;;;6.56;54.23;98025.19;5205615;28;20216;-65
2021/04/26 02:18:54;;;;;;;8.73;7.83;;;6.00;91.50;;;6.59;54.19;98022.88;5206128;28;20257;-65
2021/04/26 02:21:26;;;;;;;7.53;6.80;;;6.00;91.70;;;6.66;53.50;98027.63;5206591;28;20725;-65
2021/04/26 02:23:59;;;;;;;8.37;7.57;;;6.00;91.50;;;6.65;53.98;98036.00;5205729;28;20235;-65
2021/04/26 02:26:31;;;;;;;8.70;7.40;;;5.90;91.60;;;6.44;54.06;98042.91;5206540;28;20296;-65
2021/04/26 02:29:04;;;;;;;7.77;6.80;;;5.80;91.60;;;6.47;54.23;98044.81;5205867;28;20713;-65
2021/04/26 02:31:36;;;;;;;7.70;6.63;;;5.70;91.70;;;6.35;54.44;98043.84;5205681;28;20210;-64
2021/04/26 02:34:20;;;;;;;7.57;6.87;;;5.60;92.00;;;6.36;54.34;98050.72;5205442;28;20206;-64
2021/04/26 02:37:00;;;;;;;8.53;6.83;;;5.60;91.90;;;6.29;54.40;98050.22;5205549;28;20202;-64
2021/04/26 02:39:33;;;;;;;7.27;6.47;;;5.50;92.00;;;6.39;54.40;98046.75;5205007;28;20244;-65
2021/04/26 02:42:07;;;;;;;7.50;6.70;;;5.50;92.00;;;6.57;52.90;98043.84;5205960;28;20576;-64
2021/04/26 02:44:43;;;;;;;8.10;7.37;;;5.70;91.40;;;6.48;53.07;98054.19;5205616;28;20658;-65
2021/04/26 02:47:20;;;;;;;7.33;6.57;;;5.60;91.40;;;6.39;53.74;98056.03;5205805;28;20300;-65
2021/04/26 02:49:54;;;;;;;7.20;6.13;;;5.60;91.80;;;6.23;54.41;98044.69;5205167;28;20223;-66
2021/04/26 02:52:26;;;;;;;8.47;7.20;;;5.50;92.00;;;6.22;54.38;98052.19;5205296;28;20206;-65
2021/04/26 02:55:00;;;;;;;7.20;6.50;;;5.50;92.10;;;6.22;54.44;98042.03;5204802;28;20204;-66
2021/04/26 02:57:33;;;;;;;7.20;6.50;;;5.40;91.80;;;6.19;54.01;98040.16;5205795;28;20292;-66
2021/04/26 03:00:08;;;;;;;7.00;6.27;;;5.30;91.90;;;6.12;54.16;98040.44;5205467;28;20321;-66
2021/04/26 03:02:41;;;;;;;7.17;6.47;;;5.30;92.10;;;6.10;54.63;98031.84;5204246;28;20217;-67
2021/04/26 03:05:15;;;;;;;6.63;6.03;;;5.30;91.90;;;6.06;54.36;98029.81;5204823;28;20209;-66
2021/04/26 03:07:48;;;;;;;6.70;6.20;;;5.20;92.00;;;6.01;54.61;98026.94;5205645;28;20228;-66
2021/04/26 03:10:21;;;;;;;7.03;6.33;;;5.20;92.00;;;6.00;54.21;98024.28;5204096;28;20201;-66
2021/04/26 03:12:54;;;;;;;7.53;6.87;;;5.20;92.10;;;6.00;54.14;98019.19;5185345;28;20211;-66
2021/04/26 03:15:29;;;;;;;7.53;6.83;;;5.10;92.10;;;5.92;54.45;98015.16;5202356;28;20197;-66
2021/04/26 03:18:01;;;;;;;7.70;6.47;;;5.10;92.00;;;5.86;54.75;98011.38;5204353;28;20204;-66
2021/04/26 03:20:34;;;;;;;7.43;6.70;;;5.00;92.20;;;5.80;54.81;98021.03;5204828;28;20573;-66
2021/04/26 03:23:09;;;;;;;7.10;6.50;;;5.00;92.40;;;5.82;54.75;98014.44;5203987;28;20217;-65
2021/04/26 03:25:41;;;;;;;8.23;6.77;;;5.00;92.40;;;5.81;54.93;98006.75;5204874;28;20694;-66
2021/04/26 03:28:15;;;;;;;7.33;6.60;;;5.00;92.60;;;5.78;54.84;97998.84;5205236;28;20225;-66
2021/04/26 03:30:47;;;;;;;7.43;6.47;;;4.90;92.50;;;5.73;54.98;98000.19;5205031;28;20190;-66
2021/04/26 03:33:19;;;;;;;6.90;6.13;;;4.90;92.70;;;5.88;54.71;97999.69;5204833;28;20202;-65
2021/04/26 03:35:55;;;;;;;7.57;6.97;;;4.90;92.60;;;5.81;55.04;97992.41;5205028;28;20203;-66
2021/04/26 03:38:29;;;;;;;7.00;6.43;;;4.90;92.70;;;5.77;55.00;97985.31;5202307;28;20231;-66
2021/04/26 03:41:01;;;;;;;7.63;6.93;;;4.80;92.70;;;5.74;55.50;97989.25;5204940;28;20208;-66
2021/04/26 03:43:33;;;;;;;7.17;6.57;;;4.80;92.90;;;5.77;54.66;97990.38;5205394;28;20205;-66
2021/04/26 03:46:05;;;;;;;7.60;6.80;;;4.90;92.50;;;5.63;54.98;97989.28;5204629;28;20212;-66
2021/04/26 03:48:38;;;;;;;10.10;6.47;;;4.80;92.60;;;5.81;54.59;97978.84;5204088;28;20223;-65
2021/04/26 03:51:11;;;;;;;6.90;6.37;;;4.80;92.50;;;5.63;55.68;97990.94;5204492;28;20575;-65
2021/04/26 03:53:43;;;;;;;7.57;6.80;;;4.80;93.00;;;5.67;55.03;97987.91;5204143;28;20204;-66
2021/04/26 03:56:15;;;;;;;9.37;6.57;;;4.80;92.90;;;5.49;55.77;97991.53;5204711;28;20564;-66
2021/04/26 03:58:47;;;;;;;7.07;6.47;;;4.70;93.00;;;5.50;55.69;97988.25;5204719;28;20225;-66
2021/04/26 04:01:18;;;;;;;7.37;6.67;;;4.60;92.90;;;5.59;55.13;97984.75;5204461;28;20200;-63
2021/04/26 04:03:50;;;;;;;8.50;7.00;;;4.60;92.80;;;5.39;55.60;97985.75;5203681;28;20205;-65
2021/04/26 04:06:24;;;;;;;7.90;7.10;;;4.50;92.80;;;5.40;55.65;97987.50;5204291;28;20286;-66
2021/04/26 04:08:56;;;;;;;7.80;7.20;;;4.50;93.00;;;5.27;56.01;97982.25;5199176;28;20215;-66
2021/04/26 04:11:28;;;;;;;7.33;6.73;;;4.50;93.00;;;5.20;56.26;97980.84;5204644;28;20206;-66
2021/04/26 04:14:00;;;;;;;7.90;7.10;;;4.40;93.20;;;5.24;55.79;97979.47;5205175;28;20199;-66
2021/04/26 04:16:32;;;;;;;7.27;6.67;;;4.40;93.10;;;5.28;55.62;97976.41;5208587;28;20202;-66
2021/04/26 04:19:05;;;;;;;6.73;6.10;;;4.40;93.10;;;5.28;55.87;97976.41;5207597;28;20233;-66
2021/04/26 04:21:38;;;;;;;7.50;6.70;;;4.40;93.20;;;5.19;56.73;97981.63;5208038;28;20211;-66
2021/04/26 04:24:11;;;;;;;7.87;7.07;;;4.30;93.60;;;5.15;57.01;97978.72;5207523;28;20205;-65
2021/04/26 04:26:43;;;;;;;6.67;6.17;;;4.40;93.80;;;5.12;56.81;97979.38;5208665;28;20211;-65
2021/04/26 04:29:15;;;;;;;7.77;7.07;;;4.30;93.70;;;5.19;56.74;97981.63;5208571;28;20227;-65
2021/04/26 04:31:47;;;;;;;7.33;6.63;;;4.30;93.70;;;5.23;57.00;97982.75;5207639;28;20210;-65
2021/04/26 04:34:19;;;;;;;9.50;7.47;;;4.40;93.80;;;5.20;57.47;97987.56;5208420;28;20662;-65
2021/04/26 04:36:52;;;;;;;7.27;6.60;;;4.40;94.10;;;5.28;56.41;97984.00;5208466;28;20199;-65
2021/04/26 04:39:24;;;;;;;7.83;7.13;;;4.40;93.50;;;5.26;57.47;97977.91;5224594;22;20231;-62
2021/04/26 04:41:56;;;;;;;9.13;6.50;;;4.50;94.30;;;5.30;57.19;97974.88;5218034;28;20207;-62
2021/04/26 04:44:29;;;;;;;7.40;6.70;;;4.50;93.90;;;5.43;57.36;97972.53;5227845;28;20567;-62
2021/04/26 04:47:01;;;;;;;9.40;7.47;;;4.60;94.10;;;5.47;57.30;97962.66;5225615;28;20217;-62
2021/04/26 04:49:34;;;;;;;9.93;7.93;;;4.70;94.20;;;5.63;56.95;97963.06;5224436;28;20222;-62
2021/04/26 04:52:07;;;;;;;9.30;7.13;;;4.80;94.00;;;5.64;56.07;97958.13;5226823;28;20197;-62
2021/04/26 04:54:39;;;;;;;7.57;6.87;;;4.80;93.40;;;5.60;55.85;97965.38;5225056;28;20211;-62
2021/04/26 04:57:11;;;;;;;7.97;7.20;;;4.70;93.30;;;5.59;56.11;97958.53;5227882;28;20212;-62
2021/04/26 04:59:43;;;;;;;7.97;7.10;;;4.70;93.50;;;5.62;55.65;97964.72;5226832;28;20220;-62
2021/04/26 05:02:15;;;;;;;8.00;7.20;;;4.70;93.30;;;5.57;56.11;97963.47;5224551;28;20204;-64
2021/04/26 05:04:47;;;;;;;9.20;7.63;;;4.60;93.40;;;5.68;57.05;97964.31;5218257;28;20707;-63
2021/04/26 05:07:20;;;;;;;8.07;7.20;;;4.80;94.20;;;5.64;56.44;97962.31;5216367;28;20589;-63
2021/04/26 05:09:52;;;;;;;7.67;7.07;;;4.80;93.60;;;5.95;55.27;97972.28;5224586;28;20221;-64
2021/04/26 05:12:24;;;;;;;7.73;6.43;;;5.00;93.10;;;5.99;55.44;97967.59;5226376;28;20568;-63
2021/04/26 05:14:56;;;;;;;8.00;7.20;;;5.10;93.20;;;6.08;55.33;97975.00;5227443;28;20204;-62
2021/04/26 05:17:29;;;;;;;7.83;7.20;;;5.20;92.80;;;6.34;54.28;97974.44;5225853;28;20209;-63
2021/04/26 05:20:04;;;;;;;8.20;7.50;;;5.40;92.50;;;6.49;54.40;97977.22;5219226;28;20224;-62
2021/04/26 05:22:38;;;;;;;9.17;7.07;;;5.50;92.50;;;6.89;53.42;97986.13;5223623;28;20569;-62
2021/04/26 05:25:13;;;;;;;7.30;6.60;;;5.90;91.90;;;7.50;52.06;97979.50;5226366;28;20209;-62
2021/04/26 05:27:44;;;;;;;8.57;6.73;;;6.40;91.20;;;8.26;49.32;97983.03;5224990;28;20218;-63
2021/04/26 05:30:19;;;;;;;7.80;7.10;;;7.10;89.70;;;8.65;48.06;97984.88;5227097;28;20295;-63
2021/04/26 05:32:51;;;;;;;7.90;6.80;;;7.40;87.90;;;9.05;46.65;97982.38;5224074;28;20219;-63
2021/04/26 05:35:23;;;;;;;7.70;6.90;;;7.70;86.80;;;9.29;45.71;97977.97;5227035;28;20193;-63
2021/04/26 05:37:56;;;;;;;6.90;6.20;;;7.80;86.10;;;9.68;45.11;97978.72;5225541;28;20197;-63
2021/04/26 05:40:29;;;;;;;7.93;7.13;;;8.10;85.70;;;10.02;44.36;97980.81;5226088;28;20328;-64
2021/04/26 05:43:01;;;;;;;7.50;6.80;;;8.40;84.60;;;10.46;42.81;97974.94;5226511;28;20194;-63
2021/04/26 05:45:33;;;;;;;6.97;6.27;;;8.80;83.30;;;10.75;41.90;97969.84;5226365;28;20312;-64
2021/04/26 05:48:06;;;;;;;7.40;6.70;;;8.70;82.00;;;10.90;41.70;97962.22;5227045;28;20201;-64
2021/04/26 05:50:39;;;;;;;6.97;6.30;;;8.80;82.90;;;10.91;41.88;97960.53;5224122;28;20296;-63
2021/04/26 05:53:12;;;;;;;6.93;6.33;;;9.00;81.60;;;11.38;40.82;97970.00;5226069;28;20610;-63
2021/04/26 05:55:44;;;;;;;7.37;5.93;;;9.60;80.20;;;11.19;41.47;97970.66;5226197;28;20312;-63
2021/04/26 05:58:16;;;;;;;7.20;5.87;;;9.30;80.30;;;11.44;40.70;97970.31;5225315;28;20193;-64
2021/04/26 06:00:48;;;;;;;7.20;6.47;;;9.50;80.70;;;12.01;39.90;97971.75;5226333;28;20214;-64
2021/04/26 06:03:20;;;;;;;6.70;6.10;;;9.90;79.70;;;12.56;39.02;97979.78;5223690;28;20208;-64
2021/04/26 06:05:52;;;;;;;8.38;6.78;;;10.40;78.10;;;12.63;38.72;97966.44;5222798;28;20204;-64
2021/04/26 06:08:26;;;;;;;7.97;6.13;;;10.40;78.00;;;12.98;37.02;97969.88;5222525;28;20206;-64
2021/04/26 06:10:58;;;;;;;6.88;6.28;;;10.70;76.10;;;13.21;37.19;97972.69;5224065;28;20221;-64
2021/04/26 06:13:30;;;;;;;7.30;6.60;;;10.70;76.70;;;13.54;37.70;97981.19;5224452;28;20201;-64
2021/04/26 06:16:02;;;;;;;6.97;6.38;;;10.90;76.80;;;13.92;35.35;97979.50;5223426;28;20216;-64
2021/04/26 06:18:34;;;;;;;7.00;6.40;;;11.30;74.30;;;14.04;35.56;97977.47;5218484;28;20215;-64
2021/04/26 06:21:06;;;;;;;6.95;6.30;;;11.40;73.70;;;14.01;34.71;97977.34;5212385;28;20209;-64
2021/04/26 06:23:40;;;;;;;6.68;6.03;;;11.60;72.40;;;14.35;35.45;97977.16;5222064;28;20247;-64
2021/04/26 06:26:12;;;;;;;6.43;5.82;;;11.80;73.70;;;14.77;34.85;97971.28;5233611;28;20193;-65
2021/04/26 06:28:43;;;;;;;6.82;6.22;;;12.00;73.30;;;14.63;34.71;97979.28;5222520;28;20190;-65
2021/04/26 06:31:16;;;;;;;7.55;5.93;;;12.30;71.10;;;14.68;33.11;97966.63;5221870;28;20678;-65
2021/04/26 06:33:48;;;;;;;6.72;5.97;;;12.00;71.10;;;14.21;35.59;97975.66;5210309;28;20193;-65
2021/04/26 06:36:21;;;;;;;8.00;6.22;;;12.30;71.50;;;14.85;34.28;97968.22;5223327;28;20205;-64
2021/04/26 06:38:54;;;;;;;6.88;6.18;;;12.70;71.10;;;15.36;33.30;97971.97;5224017;28;20217;-64
2021/04/26 06:41:26;;;;;;;8.77;6.20;;;13.10;70.00;;;15.41;32.91;97965.31;5224710;28;20590;-64
2021/04/26 06:43:58;;;;;;;6.65;6.05;;;13.10;69.10;;;15.11;32.75;97965.84;5223655;28;20561;-64
2021/04/26 06:46:31;;;;;;;6.30;5.70;;;12.80;68.80;;;15.08;33.79;97960.56;5225572;28;20581;-64
2021/04/26 06:49:04;;;;;;;6.80;6.05;;;12.60;71.00;;;15.05;33.59;97958.75;5220558;28;20209;-64
2021/04/26 06:51:36;;;;;;;6.63;6.03;;;13.10;68.90;;;15.77;32.86;97961.63;5225045;28;20211;-64
2021/04/26 06:54:09;;;;;;;9.60;5.70;;;13.60;68.20;;;16.10;32.23;97961.13;5225033;28;20196;-64
2021/04/26 06:56:41;;;;;;;6.32;5.63;;;13.90;67.60;;;16.09;31.85;97964.53;5218736;28;20212;-64
2021/04/26 06:59:13;;;;;;;6.55;5.97;;;14.10;66.50;;;16.28;31.76;97954.88;5219428;28;20217;-65
2021/04/26 07:01:46;;;;;;;7.13;6.35;;;14.50;65.70;;;16.42;31.74;97964.00;5212381;28;20197;-64
2021/04/26 07:04:18;;;;;;;7.75;6.18;;;14.30;65.60;;;16.38;31.34;97968.16;5221814;28;20570;-64
2021/04/26 07:06:50;;;;;;;8.00;6.30;;;14.20;65.80;;;16.39;32.46;97958.72;5218595;28;20219;-64
2021/04/26 07:09:23;;;;;;;7.22;6.10;;;14.40;67.30;;;16.64;30.61;97961.34;5225305;28;20225;-64
2021/04/26 07:11:57;;;;;;;7.50;5.68;;;14.50;64.60;;;17.26;30.20;97964.31;5224984;28;20208;-64
2021/04/26 07:14:29;;;;;;;7.18;6.13;;;14.70;65.40;;;17.44;29.55;97955.41;5225972;28;20197;-63
2021/04/26 07:17:01;;;;;;;7.70;6.90;;;14.90;64.40;;;17.49;29.31;97961.59;5212193;28;20198;-63
2021/04/26 07:19:33;;;;;;;8.98;6.32;;;14.70;64.30;;;17.80;29.60;97953.13;5225532;28;20263;-64
2021/04/26 07:22:05;;;;;;;6.65;5.90;;;14.90;65.20;;;17.72;28.91;97954.56;5225951;28;20203;-63
2021/04/26 07:24:38;;;;;;;6.60;6.00;;;15.10;63.00;;;18.33;28.58;97950.31;5216738;28;20204;-64
2021/04/26 07:27:10;;;;;;;8.73;6.22;;;15.30;63.60;;;18.10;28.87;97952.25;5205309;28;20201;-66
2021/04/26 07:29:42;;;;;;;6.75;5.93;;;14.90;63.70;;;18.05;28.41;97948.66;5210214;28;20236;-64
2021/04/26 07:32:14;;;;;;;6.63;5.93;;;15.00;63.30;;;18.47;27.91;97943.81;5214614;28;20568;-63
2021/04/26 07:34:47;;;;;;;6.90;6.20;;;15.20;62.70;;;18.27;28.54;97942.38;5215424;28;20672;-64
2021/04/26 07:37:19;;;;;;;6.13;5.63;;;15.30;62.90;;;18.45;28.37;97941.16;5225049;28;20197;-64
2021/04/26 07:39:53;;;;;;;6.88;6.13;;;15.30;62.40;;;18.97;27.64;97940.81;5224786;28;20311;-66
2021/04/26 07:42:25;;;;;;;7.15;5.85;;;15.80;61.70;;;19.09;26.99;97943.75;5225557;28;20198;-64
2021/04/26 07:44:57;;;;;;;6.22;5.72;;;16.50;60.10;;;18.53;27.52;97932.75;5231209;28;20192;-65
2021/04/26 07:47:29;;;;;;;6.97;6.38;;;16.30;60.10;;;17.93;28.41;97939.69;5242026;28;20288;-64
2021/04/26 07:50:01;;;;;;;7.25;5.88;;;16.00;60.30;;;17.48;29.05;97933.97;5220385;28;20629;-64
2021/04/26 07:52:39;;;;;;;8.77;6.57;;;15.40;62.30;;;17.38;30.13;97930.25;5209355;28;20636;-65
2021/04/26 07:55:13;;;;;;;7.70;6.15;;;15.70;62.20;;;17.49;29.43;97934.03;5222776;28;20225;-64
2021/04/26 07:57:45;;;;;;;6.53;5.63;;;16.00;61.30;;;17.67;29.46;97925.09;5209099;28;20288;-64
2021/04/26 08:00:19;;;;;;;6.40;5.80;;;16.30;60.60;;;17.55;29.89;97931.66;5217356;28;20229;-65
2021/04/26 08:02:51;;;;;;;6.90;5.75;;;16.40;59.90;;;17.52;30.11;97936.72;5224517;28;20206;-64
2021/04/26 08:05:23;;;;;;;6.43;5.75;;;16.30;61.50;;;17.34;30.27;97926.69;5228433;28;20699;-65
2021/04/26 08:07:56;;;;;;;7.63;6.22;;;16.20;60.80;;;17.73;29.63;97931.31;5229454;28;20262;-64
2021/04/26 08:10:28;;;;;;;7.40;6.70;;;16.40;60.00;;;17.13;29.98;97926.00;5224934;28;20718;-64
2021/04/26 08:13:00;;;;;;;6.30;5.80;;;16.00;60.30;;;17.40;30.49;97920.84;5222224;28;20199;-64
2021/04/26 08:15:32;;;;;;;7.55;6.75;;;16.00;61.70;;;16.98;30.28;97921.22;5215791;28;20202;-65
2021/04/26 08:18:05;;;;;;;6.45;5.85;;;15.70;60.90;;;17.06;31.20;97919.78;5227514;28;20292;-65
2021/04/26 08:20:37;;;;;;;6.82;6.22;;;15.90;62.20;;;17.06;31.12;97919.78;5227142;28;20220;-64
2021/04/26 08:23:10;;;;;;;8.07;6.28;;;16.00;61.50;;;17.13;30.88;97920.84;5228005;28;20310;-66
2021/04/26 08:25:43;;;;;;;6.80;6.10;;;16.10;61.80;;;17.27;30.95;97914.41;5225147;28;20284;-64
2021/04/26 08:28:16;;;;;;;7.25;6.65;;;16.40;60.90;;;17.49;30.45;97922.84;5227503;28;20291;-65
2021/04/26 08:30:52;;;;;;;6.38;5.88;;;16.80;59.90;;;17.62;30.25;97911.16;5217197;28;20208;-64
2021/04/26 08:33:25;;;;;;;6.90;6.30;;;16.50;60.90;;;17.66;29.94;97911.31;5213958;28;20657;-63
2021/04/26 08:35:57;;;;;;;7.35;6.65;;;16.70;59.80;;;17.43;30.19;97909.72;5214451;28;20194;-64
2021/04/26 08:38:29;;;;;;;7.75;6.30;;;16.50;60.40;;;17.03;30.80;97901.59;5217745;28;20200;-64
2021/04/26 08:41:03;;;;;;;7.00;6.32;;;16.10;60.80;;;16.71;31.33;97897.03;5217084;28;20218;-63
2021/04/26 08:43:35;;;;;;;7.00;6.30;;;15.80;61.80;;;16.77;31.54;97893.00;5228882;28;20601;-64
2021/04/26 08:46:07;;;;;;;7.57;6.80;;;15.90;62.20;;;16.67;31.55;97894.34;5231472;28;20228;-63
2021/04/26 08:48:40;;;;;;;7.15;6.22;;;15.90;62.10;;;16.57;32.22;97894.88;5226567;28;20264;-64
2021/04/26 08:51:13;;;;;;;7.93;7.10;;;15.70;62.90;;;16.42;31.72;97886.59;5232905;28;20537;-65
2021/04/26 08:53:45;;;;;;;8.38;6.18;;;15.80;61.70;;;16.62;32.54;97889.84;5221337;28;20223;-65
2021/04/26 08:56:18;;;;;;;6.82;6.10;;;16.00;62.60;;;16.83;31.90;97894.91;5228896;28;20204;-65
2021/04/26 08:58:50;;;;;;;7.35;6.65;;;16.30;61.90;;;16.95;32.06;97894.44;5235953;28;20566;-64
2021/04/26 09:01:22;;;;;;;7.72;6.97;;;16.30;61.60;;;16.99;30.62;97889.38;5210460;28;20220;-66
2021/04/26 09:04:05;;;;;;;7.38;6.68;;;16.10;59.80;;;16.84;30.96;97892.34;5225592;28;20216;-66
2021/04/26 09:06:52;;;;;;;8.07;6.38;;;16.30;61.40;;;16.67;31.43;97884.00;5224788;28;20280;-66
2021/04/26 09:09:41;;;;;;;6.90;6.30;;;15.90;60.80;;;16.44;31.69;97884.94;5217709;28;20316;-64
2021/04/26 09:12:20;;;;;;;6.78;6.18;;;15.50;62.50;;;16.35;31.95;97879.47;5218628;28;20252;-64
2021/04/26 09:14:54;;;;;;;6.75;6.07;;;15.60;62.60;;;16.08;32.20;97885.44;5217403;28;20207;-65
2021/04/26 09:17:38;;;;;;;6.22;5.63;;;15.50;61.70;;;16.01;32.82;97878.28;5234109;28;20204;-64
2021/04/26 09:20:24;;;;;;;7.05;6.07;;;15.10;63.90;;;16.47;31.93;97874.72;5223447;28;20483;-65
2021/04/26 09:22:59;;;;;;;6.85;5.88;;;15.70;61.90;;;16.53;31.90;97874.94;5209785;28;20259;-64
2021/04/26 09:25:34;;;;;;;7.03;6.32;;;15.80;61.70;;;16.56;32.99;97875.03;5222832;28;20197;-63
2021/04/26 09:28:09;;;;;;;7.20;6.50;;;16.00;62.40;;;16.49;32.47;97867.94;5219176;28;20197;-64
2021/04/26 09:30:50;;;;;;;6.75;6.05;;;16.00;61.70;;;16.73;31.85;97869.56;5220431;28;20305;-65
2021/04/26 09:33:35;;;;;;;7.00;6.30;;;16.00;61.40;;;16.42;31.35;97871.13;5228987;28;20201;-63
2021/04/26 09:36:15;;;;;;;6.85;6.22;;;15.90;60.00;;;16.17;32.15;97875.44;5225491;28;20295;-64
2021/04/26 09:38:48;;;;;;;6.63;5.95;;;15.40;62.20;;;15.99;31.98;97864.44;5221217;28;20304;-64
2021/04/26 09:41:25;;;;;;;8.32;6.07;;;15.20;61.40;;;16.24;32.42;97871.38;5218329;28;20284;-64
2021/04/26 09:44:10;;;;;;;7.68;6.20;;;15.40;62.20;;;16.28;32.08;97857.75;5216534;28;20284;-64
2021/04/26 09:46:44;;;;;;;8.77;7.03;;;15.60;61.40;;;15.98;32.73;97852.41;5234083;28;20189;-64
2021/04/26 09:49:19;;;;;;;6.93;6.22;;;15.50;62.20;;;16.14;32.23;97851.25;5220447;28;20744;-65
2021/04/26 09:51:56;;;;;;;6.53;5.90;;;15.70;61.70;;;16.24;32.33;97849.84;5232365;28;20188;-65
2021/04/26 09:54:37;;;;;;;6.38;5.88;;;15.70;61.60;;;16.41;31.50;97851.31;5224487;28;20251;-66
2021/04/26 09:57:10;;;;;;;6.38;5.85;;;15.90;60.20;;;16.75;31.24;97844.69;5223347;28;20197;-65
2021/04/26 09:59:46;;;;;;;7.43;6.50;;;16.30;60.00;;;16.82;30.45;97851.81;5229841;28;20212;-65
2021/04/26 10:02:19;;;;;;;6.65;6.05;;;16.40;59.00;;;16.44;29.80;97856.56;5226632;28;20258;-66
2021/04/26 10:04:52;;;;;;;5.80;5.18;;;15.90;58.20;;;16.56;29.93;97851.81;5224038;28;20202;-64
2021/04/26 10:07:24;;;;;;;7.82;6.20;;;16.10;58.10;;;16.60;30.73;97845.94;5221315;28;20212;-64
2021/04/26 10:09:57;;;;;;;6.40;5.90;;;16.10;59.40;;;16.86;30.96;97849.41;5224365;28;20244;-64
2021/04/26 10:12:29;;;;;;;5.80;5.28;;;16.30;59.80;;;16.95;29.77;97842.78;5232104;28;20653;-64
2021/04/26 10:15:04;;;;;;;6.57;5.72;;;16.50;58.40;;;16.98;30.14;97838.59;5220792;28;20649;-64
2021/04/26 10:17:43;;;;;;;6.78;5.90;;;16.60;58.00;;;16.72;30.41;97839.44;5221579;28;20296;-64
2021/04/26 10:20:36;;;;;;;6.35;5.70;;;16.30;59.40;;;16.67;31.39;97837.56;5221452;28;20225;-64
2021/04/26 10:23:40;;;;;;;7.43;5.97;;;16.20;60.70;;;16.76;30.37;97841.28;5226096;28;20669;-63
2021/04/26 10:26:39;;;;;;;6.55;5.97;;;16.10;59.20;;;16.56;30.69;97841.50;5214193;28;20294;-63
2021/04/26 10:29:16;;;;;;;5.95;5.00;;;16.00;59.20;;;16.72;29.92;97839.44;5222187;28;20708;-64
2021/04/26 10:32:11;;;;;;;4.47;4.07;;;16.00;58.60;;;16.89;26.88;97831.44;5220974;28;20632;-63
2021/04/26 10:35:11;;;;;;;5.55;4.72;;;16.40;54.20;;;16.49;28.38;97838.69;5229036;28;20201;-64
2021/04/26 10:37:43;;;;;;;5.85;5.25;;;16.10;56.10;;;16.49;28.04;97831.81;5223861;28;20213;-63
2021/04/26 10:40:22;;;;;;;6.32;5.20;;;16.20;55.90;;;16.33;28.72;97835.56;5220906;28;20245;-64
2021/04/26 10:42:55;;;;;;;6.63;5.97;;;15.90;56.50;;;16.07;29.63;97831.22;5221711;28;20205;-63
2021/04/26 10:45:30;;;;;;;6.40;5.45;;;15.40;58.00;;;16.19;30.53;97813.56;5240304;22;20256;-61
2021/04/26 10:48:12;;;;;;;6.38;5.88;;;15.60;59.00;;;16.29;30.33;97817.38;5228979;28;20641;-61
2021/04/26 10:50:51;;;;;;;6.05;5.55;;;15.80;58.50;;;16.24;30.14;97811.16;5219653;28;20215;-61
2021/04/26 10:53:47;;;;;;;6.40;5.80;;;15.60;58.10;;;16.16;30.11;97805.75;5222266;28;20661;-63
2021/04/26 10:56:25;;;;;;;7.72;5.78;;;15.50;58.60;;;16.17;31.14;97799.78;5192518;28;20203;-62